Air Navigation Services of Czech Republic
Airport: LKLN Updated:  24.07.2021 06:22:28  UTC
 METAR LKLN 24.07. 06:30 ...
METAR LKLN 240630Z AUTO 05003KT 360V110 CAVOK 18/16 Q1014=